sensor_id;sensor_type;location;lat;lon;timestamp;P1;P4;P2;P0;N10;N4;N25;N1;N05;TS
73340;SPS30;61578;52.002;5.468;2023-01-15T00:00:20;5.86;5.18;3.89;2.18;17.46;17.39;17.09;15.31;10.54;0.92
73340;SPS30;61578;52.002;5.468;2023-01-15T00:00:51;6.26;5.55;4.18;2.37;18.98;18.91;18.59;16.70;11.59;0.91
73340;SPS30;61578;52.002;5.468;2023-01-15T00:01:26;5.56;4.93;3.74;2.16;17.29;17.22;16.95;15.30;10.74;0.89
73340;SPS30;61578;52.002;5.468;2023-01-15T00:02:00;5.20;4.62;3.50;2.02;16.18;16.12;15.86;14.32;10.06;0.89
73340;SPS30;61578;52.002;5.468;2023-01-15T00:02:31;5.84;5.17;3.90;2.22;17.80;17.73;17.44;15.69;10.92;0.90
73340;SPS30;61578;52.002;5.468;2023-01-15T00:03:02;6.03;5.34;4.03;2.29;18.39;18.32;18.02;16.21;11.29;0.90
73340;SPS30;61578;52.002;5.468;2023-01-15T00:03:33;5.87;5.20;3.91;2.21;17.74;17.67;17.37;15.60;10.81;0.90
73340;SPS30;61578;52.002;5.468;2023-01-15T00:04:04;5.83;5.17;3.90;2.23;17.86;17.79;17.50;15.76;10.99;0.90
73340;SPS30;61578;52.002;5.468;2023-01-15T00:04:37;5.60;4.95;3.74;2.12;17.00;16.93;16.65;14.97;10.40;0.92
73340;SPS30;61578;52.002;5.468;2023-01-15T00:05:08;6.39;5.65;4.25;2.40;19.22;19.14;18.82;16.89;11.68;0.92
73340;SPS30;61578;52.002;5.468;2023-01-15T00:05:39;6.24;5.52;4.15;2.34;18.76;18.69;18.37;16.49;11.40;0.91
73340;SPS30;61578;52.002;5.468;2023-01-15T00:06:09;6.82;6.04;4.57;2.62;21.02;20.94;20.60;18.57;12.99;0.89
73340;SPS30;61578;52.002;5.468;2023-01-15T00:06:41;6.78;6.03;4.59;2.67;21.39;21.31;20.98;18.99;13.41;0.88
73340;SPS30;61578;52.002;5.468;2023-01-15T00:07:12;6.11;5.42;4.11;2.37;18.98;18.91;18.60;16.80;11.79;0.88
73340;SPS30;61578;52.002;5.468;2023-01-15T00:07:43;4.60;4.08;3.10;1.78;14.28;14.23;14.00;12.63;8.86;0.88
73340;SPS30;61578;52.002;5.468;2023-01-15T00:08:14;5.66;5.02;3.81;2.19;17.58;17.52;17.23;15.56;10.91;0.87
73340;SPS30;61578;52.002;5.468;2023-01-15T00:08:45;5.68;5.04;3.83;2.23;17.83;17.76;17.48;15.81;11.15;0.86
73340;SPS30;61578;52.002;5.468;2023-01-15T00:09:19;6.41;5.70;4.36;2.57;20.61;20.53;20.22;18.36;13.07;0.86
73340;SPS30;61578;52.002;5.468;2023-01-15T00:09:50;6.70;5.95;4.52;2.61;20.89;20.81;20.48;18.50;13.00;0.88
73340;SPS30;61578;52.002;5.468;2023-01-15T00:10:21;6.26;5.56;4.21;2.42;19.38;19.31;19.00;17.14;12.00;0.89
73340;SPS30;61578;52.002;5.468;2023-01-15T00:10:52;6.06;5.39;4.12;2.42;19.41;19.34;19.04;17.28;12.28;0.87
73340;SPS30;61578;52.002;5.468;2023-01-15T00:11:23;5.65;5.04;3.88;2.33;18.61;18.54;18.28;16.66;11.98;0.86
73340;SPS30;61578;52.002;5.468;2023-01-15T00:11:54;5.65;5.06;3.93;2.42;19.30;19.23;18.97;17.41;12.69;0.85
73340;SPS30;61578;52.002;5.468;2023-01-15T00:12:25;5.27;4.73;3.68;2.28;18.21;18.15;17.91;16.46;12.04;0.85
73340;SPS30;61578;52.002;5.468;2023-01-15T00:12:56;5.19;4.64;3.61;2.21;17.70;17.64;17.40;15.96;11.63;0.86
73340;SPS30;61578;52.002;5.468;2023-01-15T00:13:27;5.92;5.29;4.10;2.50;20.01;19.95;19.67;18.02;13.08;0.86
73340;SPS30;61578;52.002;5.468;2023-01-15T00:13:58;5.50;4.93;3.83;2.35;18.75;18.69;18.43;16.90;12.31;0.86
73340;SPS30;61578;52.002;5.468;2023-01-15T00:14:30;4.94;4.43;3.46;2.14;17.12;17.06;16.83;15.48;11.34;0.85
73340;SPS30;61578;52.002;5.468;2023-01-15T00:15:00;4.94;4.44;3.47;2.17;17.33;17.28;17.06;15.71;11.56;0.84
73340;SPS30;61578;52.002;5.468;2023-01-15T00:15:31;5.04;4.53;3.56;2.24;17.89;17.83;17.61;16.25;12.01;0.83
73340;SPS30;61578;52.002;5.468;2023-01-15T00:16:03;5.46;4.91;3.85;2.41;19.27;19.22;18.97;17.49;12.90;0.85
73340;SPS30;61578;52.002;5.468;2023-01-15T00:16:35;5.39;4.83;3.77;2.34;18.66;18.60;18.36;16.88;12.36;0.86
73340;SPS30;61578;52.002;5.468;2023-01-15T00:17:06;5.24;4.69;3.65;2.25;18.01;17.95;17.71;16.27;11.89;0.87
73340;SPS30;61578;52.002;5.468;2023-01-15T00:17:36;5.45;4.87;3.78;2.31;18.43;18.37;18.11;16.59;12.05;0.87
73340;SPS30;61578;52.002;5.468;2023-01-15T00:18:07;7.01;6.25;4.82;2.90;23.18;23.10;22.77;20.78;14.97;0.88
73340;SPS30;61578;52.002;5.468;2023-01-15T00:18:39;6.08;5.41;4.15;2.45;19.62;19.55;19.26;17.50;12.48;0.90
73340;SPS30;61578;52.002;5.468;2023-01-15T00:19:10;6.58;5.86;4.48;2.65;21.22;21.14;20.82;18.92;13.49;0.90
73340;SPS30;61578;52.002;5.468;2023-01-15T00:19:41;6.78;6.04;4.64;2.75;22.04;21.96;21.63;19.68;14.07;0.90
73340;SPS30;61578;52.002;5.468;2023-01-15T00:20:12;5.95;5.29;4.06;2.40;19.21;19.14;18.85;17.14;12.23;0.89
73340;SPS30;61578;52.002;5.468;2023-01-15T00:20:43;6.65;5.92;4.55;2.71;21.69;21.62;21.30;19.39;13.89;0.88
73340;SPS30;61578;52.002;5.468;2023-01-15T00:21:14;5.87;5.23;4.00;2.37;18.97;18.91;18.62;16.93;12.08;0.90
73340;SPS30;61578;52.002;5.468;2023-01-15T00:21:45;5.76;5.13;3.92;2.31;18.48;18.41;18.13;16.46;11.70;0.90
73340;SPS30;61578;52.002;5.468;2023-01-15T00:22:15;6.34;5.63;4.28;2.48;19.83;19.76;19.45;17.58;12.37;0.91
73340;SPS30;61578;52.002;5.468;2023-01-15T00:22:46;7.20;6.39;4.85;2.80;22.44;22.35;21.99;19.86;13.95;0.91
73340;SPS30;61578;52.002;5.468;2023-01-15T00:23:17;5.95;5.28;4.00;2.30;18.46;18.39;18.10;16.33;11.45;0.90
73340;SPS30;61578;52.002;5.468;2023-01-15T00:24:08;6.23;5.53;4.20;2.43;19.48;19.40;19.09;17.25;12.14;0.89
73340;SPS30;61578;52.002;5.468;2023-01-15T00:24:57;5.93;5.29;4.06;2.41;19.28;19.21;18.93;17.22;12.32;0.87
73340;SPS30;61578;52.002;5.468;2023-01-15T00:25:46;6.55;5.85;4.51;2.72;21.76;21.68;21.37;19.52;14.08;0.86
73340;SPS30;61578;52.002;5.468;2023-01-15T00:26:36;5.98;5.33;4.09;2.44;19.50;19.43;19.14;17.43;12.48;0.87
73340;SPS30;61578;52.002;5.468;2023-01-15T00:27:26;6.94;6.20;4.78;2.88;23.02;22.94;22.61;20.64;14.87;0.85
73340;SPS30;61578;52.002;5.468;2023-01-15T00:28:11;6.19;5.53;4.28;2.59;20.73;20.66;20.37;18.63;13.48;0.84
73340;SPS30;61578;52.002;5.468;2023-01-15T00:28:43;6.56;5.87;4.55;2.78;22.24;22.16;21.86;20.03;14.56;0.84
73340;SPS30;61578;52.002;5.468;2023-01-15T00:29:30;5.95;5.31;4.11;2.49;19.91;19.84;19.56;17.89;12.94;0.84
73340;SPS30;61578;52.002;5.468;2023-01-15T00:30:04;6.13;5.47;4.23;2.55;20.42;20.35;20.06;18.33;13.24;0.84
73340;SPS30;61578;52.002;5.468;2023-01-15T00:30:39;5.48;4.90;3.80;2.33;18.61;18.55;18.29;16.77;12.20;0.84
73340;SPS30;61578;52.002;5.468;2023-01-15T00:31:12;4.90;4.38;3.40;2.09;16.66;16.61;16.38;15.02;10.94;0.84
73340;SPS30;61578;52.002;5.468;2023-01-15T00:31:49;4.56;4.07;3.15;1.90;15.22;15.17;14.96;13.67;9.88;0.86
73340;SPS30;61578;52.002;5.468;2023-01-15T00:32:26;5.45;4.87;3.78;2.31;18.49;18.43;18.17;16.66;12.11;0.84
73340;SPS30;61578;52.002;5.468;2023-01-15T00:32:58;5.33;4.77;3.72;2.29;18.30;18.24;18.00;16.53;12.07;0.84
73340;SPS30;61578;52.002;5.468;2023-01-15T00:33:29;5.95;5.31;4.10;2.47;19.77;19.70;19.42;17.73;12.79;0.86
73340;SPS30;61578;52.002;5.468;2023-01-15T00:34:00;6.54;5.82;4.45;2.61;20.91;20.83;20.51;18.61;13.21;0.87
73340;SPS30;61578;52.002;5.468;2023-01-15T00:34:32;6.25;5.56;4.24;2.48;19.86;19.79;19.48;17.66;12.51;0.87
73340;SPS30;61578;52.002;5.468;2023-01-15T00:35:04;6.72;5.97;4.54;2.64;21.13;21.05;20.72;18.74;13.22;0.88
73340;SPS30;61578;52.002;5.468;2023-01-15T00:35:37;6.32;5.60;4.23;2.42;19.37;19.29;18.98;17.09;11.92;0.90
73340;SPS30;61578;52.002;5.468;2023-01-15T00:36:08;6.86;6.07;4.57;2.59;20.74;20.65;20.31;18.24;12.64;0.91
73340;SPS30;61578;52.002;5.468;2023-01-15T00:36:39;6.31;5.57;4.18;2.34;18.79;18.71;18.39;16.47;11.34;0.92
73340;SPS30;61578;52.002;5.468;2023-01-15T00:37:10;7.48;6.61;4.96;2.77;22.24;22.15;21.77;19.49;13.41;0.92
73340;SPS30;61578;52.002;5.468;2023-01-15T00:37:41;7.12;6.29;4.71;2.62;21.03;20.94;20.58;18.40;12.61;0.92
73340;SPS30;61578;52.002;5.468;2023-01-15T00:38:12;7.31;6.45;4.83;2.69;21.57;21.48;21.11;18.87;12.94;0.92
73340;SPS30;61578;52.002;5.468;2023-01-15T00:38:43;6.47;5.71;4.27;2.37;19.02;18.94;18.60;16.62;11.37;0.93
73340;SPS30;61578;52.002;5.468;2023-01-15T00:39:14;7.07;6.25;4.69;2.62;21.02;20.93;20.57;18.42;12.67;0.92
73340;SPS30;61578;52.002;5.468;2023-01-15T00:39:45;6.82;6.03;4.51;2.51;20.17;20.09;19.74;17.66;12.11;0.92
73340;SPS30;61578;52.002;5.468;2023-01-15T00:40:16;7.16;6.32;4.73;2.62;21.02;20.93;20.57;18.37;12.56;0.92
73340;SPS30;61578;52.002;5.468;2023-01-15T00:40:49;8.45;7.46;5.58;3.09;24.78;24.68;24.24;21.65;14.79;0.92
73340;SPS30;61578;52.002;5.468;2023-01-15T00:41:22;7.30;6.46;4.87;2.76;22.16;22.07;21.70;19.51;13.55;0.90
73340;SPS30;61578;52.002;5.468;2023-01-15T00:41:53;6.50;5.76;4.36;2.50;20.03;19.95;19.63;17.69;12.37;0.90
73340;SPS30;61578;52.002;5.468;2023-01-15T00:42:25;7.40;6.54;4.92;2.77;22.21;22.13;21.75;19.51;13.48;0.90
73340;SPS30;61578;52.002;5.468;2023-01-15T00:42:56;6.29;5.57;4.21;2.39;19.19;19.11;18.80;16.91;11.77;0.88
73340;SPS30;61578;52.002;5.468;2023-01-15T00:43:27;7.14;6.34;4.83;2.81;22.51;22.42;22.07;19.98;14.11;0.87
73340;SPS30;61578;52.002;5.468;2023-01-15T00:43:58;5.83;5.18;3.96;2.32;18.55;18.48;18.20;16.50;11.70;0.87
73340;SPS30;61578;52.002;5.468;2023-01-15T00:44:28;6.20;5.51;4.18;2.42;19.37;19.30;18.99;17.16;12.07;0.87
73340;SPS30;61578;52.002;5.468;2023-01-15T00:45:02;6.32;5.60;4.24;2.43;19.49;19.42;19.10;17.22;12.05;0.89
73340;SPS30;61578;52.002;5.468;2023-01-15T00:45:39;6.52;5.77;4.36;2.48;19.89;19.82;19.49;17.54;12.21;0.89
73340;SPS30;61578;52.002;5.468;2023-01-15T00:46:10;6.64;5.87;4.41;2.48;19.89;19.81;19.47;17.46;12.05;0.90
73340;SPS30;61578;52.002;5.468;2023-01-15T00:46:41;7.35;6.48;4.83;2.65;21.32;21.23;20.85;18.58;12.62;0.92
73340;SPS30;61578;52.002;5.468;2023-01-15T00:47:12;8.90;7.83;5.81;3.14;25.25;25.14;24.68;21.89;14.71;0.94
73340;SPS30;61578;52.002;5.468;2023-01-15T00:47:45;8.62;7.58;5.62;3.03;24.39;24.29;23.83;21.13;14.19;0.93
73340;SPS30;61578;52.002;5.468;2023-01-15T00:48:17;7.50;6.61;4.93;2.71;21.78;21.69;21.30;18.99;12.92;0.92
73340;SPS30;61578;52.002;5.468;2023-01-15T00:48:48;6.70;5.91;4.41;2.44;19.56;19.48;19.14;17.07;11.64;0.91
73340;SPS30;61578;52.002;5.468;2023-01-15T00:49:19;6.67;5.88;4.38;2.40;19.29;19.21;18.87;16.80;11.40;0.92
73340;SPS30;61578;52.002;5.468;2023-01-15T00:49:50;6.82;6.00;4.45;2.41;19.38;19.29;18.93;16.80;11.30;0.93
73340;SPS30;61578;52.002;5.468;2023-01-15T00:50:22;7.80;6.86;5.07;2.71;21.80;21.70;21.29;18.82;12.55;0.93
73340;SPS30;61578;52.002;5.468;2023-01-15T00:50:53;7.31;6.43;4.76;2.56;20.57;20.48;20.09;17.80;11.91;0.93
73340;SPS30;61578;52.002;5.468;2023-01-15T00:51:24;6.88;6.05;4.48;2.40;19.32;19.24;18.87;16.71;11.17;0.93
73340;SPS30;61578;52.002;5.468;2023-01-15T00:51:55;7.14;6.27;4.62;2.45;19.71;19.62;19.24;16.97;11.24;0.94
73340;SPS30;61578;52.002;5.468;2023-01-15T00:52:25;6.97;6.13;4.52;2.40;19.34;19.25;18.88;16.67;11.07;0.93
73340;SPS30;61578;52.002;5.468;2023-01-15T00:52:56;8.14;7.16;5.31;2.88;23.12;23.02;22.59;20.04;13.48;0.91
73340;SPS30;61578;52.002;5.468;2023-01-15T00:53:27;7.27;6.40;4.74;2.56;20.58;20.49;20.11;17.84;11.98;0.92
73340;SPS30;61578;52.002;5.468;2023-01-15T00:53:58;7.15;6.29;4.66;2.52;20.23;20.14;19.77;17.53;11.77;0.91
73340;SPS30;61578;52.002;5.468;2023-01-15T00:54:30;6.66;5.87;4.37;2.39;19.23;19.15;18.80;16.74;11.35;0.90
73340;SPS30;61578;52.002;5.468;2023-01-15T00:55:02;6.90;6.10;4.57;2.56;20.51;20.43;20.08;17.98;12.36;0.89
73340;SPS30;61578;52.002;5.468;2023-01-15T00:55:35;7.11;6.29;4.72;2.65;21.23;21.15;20.79;18.62;12.83;0.90
73340;SPS30;61578;52.002;5.468;2023-01-15T00:56:06;7.24;6.40;4.81;2.69;21.63;21.54;21.17;18.97;13.08;0.90
73340;SPS30;61578;52.002;5.468;2023-01-15T00:56:37;7.37;6.51;4.88;2.71;21.79;21.70;21.33;19.07;13.09;0.91
73340;SPS30;61578;52.002;5.468;2023-01-15T00:57:08;7.19;6.35;4.74;2.61;21.00;20.91;20.54;18.33;12.49;0.92
73340;SPS30;61578;52.002;5.468;2023-01-15T00:57:40;7.07;6.24;4.65;2.57;20.61;20.52;20.15;17.98;12.25;0.92
73340;SPS30;61578;52.002;5.468;2023-01-15T00:58:11;6.95;6.14;4.61;2.58;20.68;20.60;20.24;18.13;12.48;0.90
73340;SPS30;61578;52.002;5.468;2023-01-15T00:58:42;6.75;5.97;4.50;2.54;20.37;20.29;19.95;17.91;12.40;0.91
73340;SPS30;61578;52.002;5.468;2023-01-15T00:59:13;7.62;6.71;4.99;2.72;21.88;21.78;21.39;19.02;12.86;0.94
73340;SPS30;61578;52.002;5.468;2023-01-15T00:59:44;6.87;6.04;4.48;2.42;19.48;19.40;19.03;16.89;11.35;0.94
73340;SPS30;61578;52.002;5.468;2023-01-15T01:00:15;6.49;5.72;4.25;2.31;18.56;18.48;18.14;16.12;10.88;0.93
73340;SPS30;61578;52.002;5.468;2023-01-15T01:00:51;6.36;5.63;4.23;2.37;19.04;18.97;18.64;16.71;11.53;0.91
73340;SPS30;61578;52.002;5.468;2023-01-15T01:01:24;6.46;5.70;4.26;2.35;18.88;18.80;18.47;16.48;11.24;0.93
73340;SPS30;61578;52.002;5.468;2023-01-15T01:01:55;7.58;6.68;4.97;2.72;21.83;21.74;21.34;18.99;12.86;0.93
73340;SPS30;61578;52.002;5.468;2023-01-15T01:02:26;7.12;6.28;4.67;2.56;20.57;20.49;20.12;17.91;12.15;0.93
73340;SPS30;61578;52.002;5.468;2023-01-15T01:02:57;6.27;5.52;4.12;2.26;18.15;18.08;17.75;15.81;10.74;0.93
73340;SPS30;61578;52.002;5.468;2023-01-15T01:03:28;6.22;5.48;4.07;2.22;17.82;17.74;17.42;15.48;10.45;0.94
73340;SPS30;61578;52.002;5.468;2023-01-15T01:03:59;7.38;6.50;4.82;2.61;21.00;20.91;20.52;18.22;12.26;0.95
73340;SPS30;61578;52.002;5.468;2023-01-15T01:04:30;6.85;6.03;4.48;2.43;19.51;19.42;19.06;16.92;11.40;0.94
73340;SPS30;61578;52.002;5.468;2023-01-15T01:05:01;6.35;5.59;4.15;2.25;18.11;18.03;17.70;15.72;10.59;0.94
73340;SPS30;61578;52.002;5.468;2023-01-15T01:05:32;6.96;6.14;4.57;2.51;20.13;20.04;19.68;17.52;11.89;0.94
73340;SPS30;61578;52.002;5.468;2023-01-15T01:06:03;6.86;6.05;4.53;2.52;20.21;20.13;19.78;17.68;12.11;0.92
73340;SPS30;61578;52.002;5.468;2023-01-15T01:06:35;5.84;5.17;3.90;2.21;17.72;17.65;17.35;15.60;10.83;0.91
73340;SPS30;61578;52.002;5.468;2023-01-15T01:07:06;6.53;5.77;4.35;2.45;19.67;19.59;19.26;17.29;11.97;0.92
73340;SPS30;61578;52.002;5.468;2023-01-15T01:07:36;7.37;6.52;4.89;2.73;21.95;21.86;21.48;19.24;13.24;0.92
73340;SPS30;61578;52.002;5.468;2023-01-15T01:08:07;6.90;6.11;4.60;2.60;20.85;20.76;20.42;18.33;12.70;0.91
73340;SPS30;61578;52.002;5.468;2023-01-15T01:08:38;6.05;5.35;4.04;2.29;18.37;18.29;17.99;16.17;11.23;0.90
73340;SPS30;61578;52.002;5.468;2023-01-15T01:09:11;6.14;5.44;4.11;2.34;18.78;18.71;18.40;16.57;11.55;0.90
73340;SPS30;61578;52.002;5.468;2023-01-15T01:09:44;6.43;5.68;4.27;2.40;19.27;19.20;18.87;16.92;11.69;0.91
73340;SPS30;61578;52.002;5.468;2023-01-15T01:10:15;6.24;5.52;4.14;2.32;18.59;18.52;18.20;16.30;11.22;0.91
73340;SPS30;61578;52.002;5.468;2023-01-15T01:10:46;5.62;4.97;3.74;2.11;16.92;16.85;16.57;14.87;10.29;0.91
73340;SPS30;61578;52.002;5.468;2023-01-15T01:11:19;6.11;5.41;4.08;2.31;18.55;18.47;18.16;16.33;11.34;0.90
73340;SPS30;61578;52.002;5.468;2023-01-15T01:11:55;5.82;5.16;3.91;2.24;17.99;17.92;17.63;15.90;11.13;0.89
73340;SPS30;61578;52.002;5.468;2023-01-15T01:12:26;6.16;5.46;4.14;2.37;19.00;18.92;18.62;16.78;11.73;0.90
73340;SPS30;61578;52.002;5.468;2023-01-15T01:12:57;6.08;5.39;4.09;2.36;18.89;18.82;18.52;16.72;11.74;0.89
73340;SPS30;61578;52.002;5.468;2023-01-15T01:13:28;6.32;5.60;4.25;2.45;19.60;19.53;19.22;17.34;12.17;0.90
73340;SPS30;61578;52.002;5.468;2023-01-15T01:13:59;5.84;5.17;3.90;2.21;17.75;17.68;17.39;15.63;10.87;0.91
73340;SPS30;61578;52.002;5.468;2023-01-15T01:14:31;6.71;5.93;4.46;2.51;20.11;20.03;19.69;17.66;12.19;0.92
73340;SPS30;61578;52.002;5.468;2023-01-15T01:15:02;6.64;5.88;4.43;2.50;20.04;19.96;19.63;17.62;12.21;0.92
73340;SPS30;61578;52.002;5.468;2023-01-15T01:15:34;6.01;5.32;4.01;2.27;18.18;18.11;17.80;15.99;11.09;0.92
73340;SPS30;61578;52.002;5.468;2023-01-15T01:17:06;6.38;5.64;4.23;2.37;19.00;18.93;18.60;16.66;11.47;0.92
73340;SPS30;61578;52.002;5.468;2023-01-15T01:17:37;6.58;5.81;4.35;2.42;19.44;19.36;19.02;17.01;11.67;0.92
73340;SPS30;61578;52.002;5.468;2023-01-15T01:18:09;7.40;6.54;4.91;2.74;22.00;21.91;21.54;19.28;13.26;0.91
73340;SPS30;61578;52.002;5.468;2023-01-15T01:18:39;6.96;6.15;4.60;2.56;20.51;20.43;20.07;17.94;12.29;0.92
73340;SPS30;61578;52.002;5.468;2023-01-15T01:19:11;5.97;5.27;3.93;2.17;17.40;17.32;17.01;15.17;10.34;0.92
73340;SPS30;61578;52.002;5.468;2023-01-15T01:19:46;5.58;4.92;3.66;2.00;16.06;15.99;15.70;13.97;9.46;0.93
73340;SPS30;61578;52.002;5.468;2023-01-15T01:20:17;6.16;5.42;4.01;2.16;17.38;17.30;16.98;15.04;10.08;0.93
73340;SPS30;61578;52.002;5.468;2023-01-15T01:20:48;5.62;4.95;3.66;1.96;15.77;15.70;15.41;13.64;9.11;0.93
73340;SPS30;61578;52.002;5.468;2023-01-15T01:21:20;7.37;6.48;4.78;2.54;20.42;20.33;19.94;17.60;11.67;0.93
73340;SPS30;61578;52.002;5.468;2023-01-15T01:21:51;7.66;6.72;4.94;2.59;20.87;20.77;20.36;17.91;11.77;0.94
73340;SPS30;61578;52.002;5.468;2023-01-15T01:22:22;6.13;5.37;3.95;2.07;16.69;16.62;16.29;14.33;9.42;0.94
73340;SPS30;61578;52.002;5.468;2023-01-15T01:22:53;7.65;6.73;4.99;2.70;21.73;21.64;21.24;18.85;12.68;0.92
73340;SPS30;61578;52.002;5.468;2023-01-15T01:23:24;7.24;6.38;4.74;2.59;20.78;20.69;20.31;18.06;12.21;0.92
73340;SPS30;61578;52.002;5.468;2023-01-15T01:23:57;7.21;6.35;4.73;2.58;20.74;20.65;20.27;18.04;12.21;0.92
73340;SPS30;61578;52.002;5.468;2023-01-15T01:24:29;7.14;6.28;4.64;2.48;19.98;19.89;19.51;17.26;11.52;0.93
73340;SPS30;61578;52.002;5.468;2023-01-15T01:25:00;5.86;5.16;3.82;2.07;16.63;16.56;16.25;14.42;9.69;0.92
73340;SPS30;61578;52.002;5.468;2023-01-15T01:25:31;5.48;4.83;3.61;1.99;15.99;15.92;15.64;13.95;9.51;0.91
73340;SPS30;61578;52.002;5.468;2023-01-15T01:26:02;6.04;5.33;3.99;2.22;17.83;17.76;17.45;15.60;10.70;0.91
73340;SPS30;61578;52.002;5.468;2023-01-15T01:26:33;6.95;6.13;4.58;2.53;20.29;20.20;19.85;17.71;12.07;0.91
73340;SPS30;61578;52.002;5.468;2023-01-15T01:27:04;6.98;6.15;4.58;2.49;20.05;19.96;19.59;17.42;11.78;0.92
73340;SPS30;61578;52.002;5.468;2023-01-15T01:27:35;6.14;5.42;4.05;2.24;17.99;17.92;17.60;15.71;10.73;0.91
73340;SPS30;61578;52.002;5.468;2023-01-15T01:28:06;6.00;5.31;4.00;2.25;18.08;18.00;17.70;15.89;11.00;0.91
73340;SPS30;61578;52.002;5.468;2023-01-15T01:28:37;6.29;5.56;4.18;2.35;18.87;18.79;18.47;16.57;11.45;0.91
73340;SPS30;61578;52.002;5.468;2023-01-15T01:29:10;6.64;5.87;4.42;2.49;20.01;19.93;19.59;17.59;12.18;0.91
73340;SPS30;61578;52.002;5.468;2023-01-15T01:29:49;5.87;5.20;3.91;2.20;17.68;17.61;17.31;15.54;10.75;0.92
73340;SPS30;61578;52.002;5.468;2023-01-15T01:30:20;6.36;5.61;4.21;2.34;18.79;18.71;18.38;16.44;11.28;0.92
73340;SPS30;61578;52.002;5.468;2023-01-15T01:30:52;6.33;5.59;4.17;2.30;18.45;18.37;18.04;16.09;10.96;0.92
73340;SPS30;61578;52.002;5.468;2023-01-15T01:31:23;5.95;5.25;3.91;2.14;17.18;17.11;16.80;14.96;10.14;0.93
73340;SPS30;61578;52.002;5.468;2023-01-15T01:31:54;7.31;6.44;4.80;2.62;21.04;20.95;20.57;18.29;12.38;0.93
73340;SPS30;61578;52.002;5.468;2023-01-15T01:32:25;6.68;5.88;4.38;2.39;19.20;19.11;18.77;16.69;11.30;0.93
73340;SPS30;61578;52.002;5.468;2023-01-15T01:32:56;6.59;5.81;4.31;2.34;18.84;18.76;18.41;16.36;11.03;0.93
73340;SPS30;61578;52.002;5.468;2023-01-15T01:33:27;6.35;5.59;4.14;2.23;17.95;17.87;17.54;15.55;10.43;0.93
73340;SPS30;61578;52.002;5.468;2023-01-15T01:33:58;5.86;5.15;3.79;2.01;16.19;16.12;15.80;13.94;9.23;0.94
73340;SPS30;61578;52.002;5.468;2023-01-15T01:34:29;7.07;6.20;4.56;2.41;19.39;19.30;18.92;16.66;11.00;0.95
73340;SPS30;61578;52.002;5.468;2023-01-15T01:35:00;7.05;6.19;4.54;2.38;19.15;19.06;18.68;16.42;10.77;0.96
73340;SPS30;61578;52.002;5.468;2023-01-15T01:35:31;8.43;7.39;5.40;2.80;22.56;22.45;21.99;19.27;12.54;0.95
73340;SPS30;61578;52.002;5.468;2023-01-15T01:36:02;7.78;6.81;4.97;2.55;20.57;20.47;20.05;17.52;11.32;0.96
73340;SPS30;61578;52.002;5.468;2023-01-15T01:36:34;7.56;6.61;4.81;2.46;19.85;19.75;19.34;16.88;10.86;0.95
73340;SPS30;61578;52.002;5.468;2023-01-15T01:37:08;6.98;6.11;4.46;2.30;18.57;18.48;18.10;15.84;10.27;0.95
73340;SPS30;61578;52.002;5.468;2023-01-15T01:37:38;5.40;4.73;3.45;1.78;14.35;14.28;13.98;12.23;7.92;0.96
73340;SPS30;61578;52.002;5.468;2023-01-15T01:38:09;6.98;6.11;4.45;2.28;18.37;18.28;17.90;15.63;10.07;0.96
73340;SPS30;61578;52.002;5.468;2023-01-15T01:38:40;7.49;6.56;4.79;2.47;19.93;19.84;19.43;17.00;11.02;0.95
73340;SPS30;61578;52.002;5.468;2023-01-15T01:39:13;7.56;6.62;4.84;2.51;20.22;20.12;19.71;17.27;11.24;0.95
73340;SPS30;61578;52.002;5.468;2023-01-15T01:39:47;6.91;6.06;4.45;2.33;18.75;18.67;18.29;16.08;10.55;0.95
73340;SPS30;61578;52.002;5.468;2023-01-15T01:40:18;6.69;5.87;4.32;2.27;18.31;18.22;17.86;15.73;10.36;0.94
73340;SPS30;61578;52.002;5.468;2023-01-15T01:40:50;7.52;6.59;4.82;2.50;20.17;20.08;19.67;17.25;11.24;0.96
73340;SPS30;61578;52.002;5.468;2023-01-15T01:41:21;6.25;5.47;3.99;2.06;16.58;16.50;16.16;14.13;9.14;0.97
73340;SPS30;61578;52.002;5.468;2023-01-15T01:41:53;6.53;5.71;4.17;2.15;17.37;17.28;16.93;14.82;9.61;0.97
73340;SPS30;61578;52.002;5.468;2023-01-15T01:42:24;6.34;5.56;4.07;2.12;17.09;17.01;16.67;14.63;9.56;0.96
73340;SPS30;61578;52.002;5.468;2023-01-15T01:42:55;6.34;5.55;4.06;2.10;16.93;16.85;16.50;14.45;9.39;0.97
73340;SPS30;61578;52.002;5.468;2023-01-15T01:43:27;6.23;5.46;3.99;2.06;16.60;16.52;16.18;14.16;9.18;0.98
73340;SPS30;61578;52.002;5.468;2023-01-15T01:45:18;6.72;5.88;4.30;2.21;17.83;17.75;17.38;15.20;9.84;0.99
73340;SPS30;61578;52.002;5.468;2023-01-15T01:45:49;7.36;6.43;4.67;2.36;19.06;18.97;18.56;16.15;10.30;0.99
73340;SPS30;61578;52.002;5.468;2023-01-15T01:46:20;7.80;6.81;4.95;2.50;20.19;20.08;19.65;17.09;10.90;0.99
73340;SPS30;61578;52.002;5.468;2023-01-15T01:46:52;9.29;8.11;5.87;2.94;23.75;23.63;23.11;20.04;12.67;1.00
73340;SPS30;61578;52.002;5.468;2023-01-15T01:47:23;7.38;6.44;4.65;2.31;18.68;18.58;18.17;15.71;9.87;1.00
73340;SPS30;61578;52.002;5.468;2023-01-15T01:48:01;6.94;6.06;4.39;2.20;17.74;17.65;17.27;14.97;9.47;1.00
73340;SPS30;61578;52.002;5.468;2023-01-15T01:48:36;7.49;6.54;4.75;2.40;19.35;19.25;18.84;16.38;10.43;0.99
73340;SPS30;61578;52.002;5.468;2023-01-15T01:49:10;6.78;5.92;4.30;2.17;17.51;17.42;17.05;14.82;9.44;0.99
73340;SPS30;61578;52.002;5.468;2023-01-15T01:49:44;7.24;6.33;4.58;2.31;18.62;18.52;18.12;15.73;9.99;0.99
73340;SPS30;61578;52.002;5.468;2023-01-15T01:50:27;7.40;6.46;4.67;2.33;18.85;18.75;18.34;15.89;10.03;1.00
73340;SPS30;61578;52.002;5.468;2023-01-15T01:51:01;7.35;6.42;4.63;2.30;18.61;18.52;18.11;15.67;9.84;1.00
73340;SPS30;61578;52.002;5.468;2023-01-15T01:51:48;7.86;6.85;4.95;2.46;19.84;19.74;19.30;16.69;10.47;1.00
73340;SPS30;61578;52.002;5.468;2023-01-15T01:52:57;7.82;6.80;4.88;2.36;19.12;19.02;18.57;15.93;9.78;1.03
73340;SPS30;61578;52.002;5.468;2023-01-15T01:53:40;7.40;6.43;4.61;2.23;18.07;17.97;17.55;15.06;9.24;1.04
73340;SPS30;61578;52.002;5.468;2023-01-15T01:54:12;7.21;6.27;4.49;2.17;17.52;17.43;17.02;14.58;8.90;1.03
73340;SPS30;61578;52.002;5.468;2023-01-15T01:54:50;8.44;7.35;5.27;2.56;20.67;20.56;20.08;17.23;10.58;1.03
73340;SPS30;61578;52.002;5.468;2023-01-15T01:55:22;8.16;7.10;5.09;2.47;19.95;19.84;19.38;16.62;10.20;1.03
73340;SPS30;61578;52.002;5.468;2023-01-15T01:55:58;7.75;6.75;4.85;2.38;19.23;19.13;18.69;16.09;9.98;1.02
73340;SPS30;61578;52.002;5.468;2023-01-15T01:56:31;7.43;6.47;4.65;2.28;18.45;18.35;17.93;15.44;9.58;1.01
73340;SPS30;61578;52.002;5.468;2023-01-15T01:57:06;6.77;5.90;4.24;2.08;16.85;16.76;16.37;14.11;8.76;1.00
73340;SPS30;61578;52.002;5.468;2023-01-15T01:57:39;7.11;6.20;4.48;2.22;17.96;17.87;17.47;15.11;9.49;1.00
73340;SPS30;61578;52.002;5.468;2023-01-15T01:58:12;5.64;4.93;3.57;1.80;14.51;14.43;14.12;12.26;7.79;0.99
73340;SPS30;61578;52.002;5.468;2023-01-15T01:58:47;7.75;6.79;4.96;2.56;20.65;20.56;20.13;17.62;11.44;0.97
73340;SPS30;61578;52.002;5.468;2023-01-15T01:59:24;6.66;5.84;4.27;2.22;17.90;17.81;17.45;15.30;9.98;0.97
73340;SPS30;61578;52.002;5.468;2023-01-15T01:59:56;6.99;6.13;4.50;2.36;19.04;18.95;18.58;16.34;10.75;0.97
73340;SPS30;61578;52.002;5.468;2023-01-15T02:00:31;6.36;5.58;4.10;2.17;17.43;17.35;17.01;14.99;9.89;0.96
73340;SPS30;61578;52.002;5.468;2023-01-15T02:01:05;7.63;6.70;4.93;2.61;21.03;20.93;20.53;18.10;11.98;0.97
73340;SPS30;61578;52.002;5.468;2023-01-15T02:01:36;6.82;5.98;4.40;2.32;18.67;18.59;18.22;16.05;10.58;0.97
73340;SPS30;61578;52.002;5.468;2023-01-15T02:02:07;6.83;5.98;4.38;2.28;18.34;18.25;17.88;15.68;10.22;0.97
73340;SPS30;61578;52.002;5.468;2023-01-15T02:02:38;7.14;6.26;4.58;2.37;19.14;19.04;18.66;16.35;10.65;0.97
73340;SPS30;61578;52.002;5.468;2023-01-15T02:03:15;6.23;5.47;4.02;2.11;17.01;16.93;16.59;14.60;9.60;0.96
73340;SPS30;61578;52.002;5.468;2023-01-15T02:03:51;6.17;5.41;3.96;2.07;16.64;16.56;16.23;14.25;9.32;0.97
73340;SPS30;61578;52.002;5.468;2023-01-15T02:04:23;7.08;6.19;4.51;2.31;18.60;18.51;18.12;15.82;10.18;0.98
73340;SPS30;61578;52.002;5.468;2023-01-15T02:04:58;7.09;6.19;4.49;2.26;18.24;18.15;17.76;15.43;9.80;0.99